Time;durP1;ratioP1;P1;durP2;ratioP2;P2;SDS_P1;SDS_P2;PMS_P1;PMS_P2;Temp;Humidity;BMP_temperature;BMP_pressure;BME280_temperature;BME280_humidity;BME280_pressure;Samples;Min_cycle;Max_cycle;Signal;HPM_P1;HPM_P2
2022/03/31 00:03:39;;;;;;;24.63;10.33;;;;;;;7.24;92.49;99620.69;30996598;28;20149;-77
2022/03/31 00:18:44;;;;;;;10.60;6.80;;;;;;;7.04;98.91;99613.22;30981593;28;20057;-76
2022/03/31 00:33:46;;;;;;;14.30;6.60;;;;;;;6.73;100.00;99630.56;30985141;28;20046;-76
2022/03/31 00:48:48;;;;;;;28.83;10.13;;;;;;;6.70;100.00;99631.38;30979832;28;20125;-77
2022/03/31 01:03:50;;;;;;;26.10;10.37;;;;;;;6.68;100.00;99631.00;30980685;28;20145;-77
2022/03/31 01:18:52;;;;;;;27.03;10.23;;;;;;;6.66;100.00;99636.03;30982083;28;20422;-77
2022/03/31 01:33:54;;;;;;;27.57;11.60;;;;;;;6.70;100.00;99652.94;31015227;28;20053;-78
2022/03/31 01:48:56;;;;;;;29.83;10.87;;;;;;;6.78;100.00;99654.41;31025921;28;20038;-77
2022/03/31 02:03:58;;;;;;;26.10;11.83;;;;;;;6.87;100.00;99665.47;31038702;28;20455;-77
2022/03/31 02:19:00;;;;;;;25.50;10.03;;;;;;;6.85;100.00;99659.69;30972422;28;20078;-77
2022/03/31 02:34:02;;;;;;;23.17;11.67;;;;;;;6.89;100.00;99660.44;30887306;28;20569;-78
2022/03/31 02:49:04;;;;;;;33.87;12.30;;;;;;;6.91;100.00;99663.50;30880510;28;20134;-76
2022/03/31 03:04:08;;;;;;;19.87;10.57;;;;;;;6.95;100.00;99658.06;30876676;28;20083;-77
2022/03/31 03:19:10;;;;;;;11.50;6.87;;;;;;;7.09;100.00;99655.94;30877228;28;20078;-77
2022/03/31 03:34:13;;;;;;;22.23;11.40;;;;;;;7.21;100.00;99643.84;30884099;28;20138;-77
2022/03/31 03:49:15;;;;;;;29.53;12.23;;;;;;;7.37;100.00;99630.50;30885095;28;20129;-76
2022/03/31 04:04:17;;;;;;;23.13;12.07;;;;;;;7.61;100.00;99650.22;30848907;28;20702;-78
2022/03/31 04:19:24;;;;;;;23.03;10.13;;;;;;;7.81;100.00;99658.41;30904161;28;20057;-77
2022/03/31 04:34:26;;;;;;;19.97;10.33;;;;;;;8.00;100.00;99654.25;30985216;28;20066;-77
2022/03/31 04:49:28;;;;;;;17.77;8.93;;;;;;;8.32;99.51;99643.69;30972490;28;20133;-77
2022/03/31 05:04:30;;;;;;;15.53;8.17;;;;;;;8.63;96.80;99659.75;30973331;28;20074;-77
2022/03/31 05:19:34;;;;;;;16.27;7.63;;;;;;;8.89;94.67;99662.31;30993032;28;20050;-77
2022/03/31 05:34:36;;;;;;;12.43;7.37;;;;;;;9.24;91.72;99696.03;30962335;28;20050;-77
2022/03/31 05:49:38;;;;;;;12.77;5.70;;;;;;;9.70;85.89;99696.97;30965129;28;20046;-77
2022/03/31 06:04:40;;;;;;;11.87;6.50;;;;;;;10.12;85.17;99673.53;31001825;28;20077;-76
2022/03/31 06:19:42;;;;;;;18.70;6.60;;;;;;;10.38;83.36;99674.47;31000845;28;20557;-78
2022/03/31 06:34:45;;;;;;;14.80;6.27;;;;;;;11.00;78.08;99650.69;30990730;28;20042;-78
2022/03/31 06:49:48;;;;;;;10.73;6.33;;;;;;;12.77;72.14;99681.56;31034890;28;20088;-77
2022/03/31 07:04:52;;;;;;;10.93;3.73;;;;;;;14.18;62.49;99652.81;30977944;28;20525;-79
2022/03/31 07:19:54;;;;;;;19.20;5.50;;;;;;;15.43;55.34;99637.94;30971267;28;20055;-77
2022/03/31 07:34:58;;;;;;;10.73;4.67;;;;;;;16.17;53.47;99649.28;30882567;28;20149;-78
2022/03/31 07:50:03;;;;;;;13.55;5.78;;;;;;;17.62;49.22;99635.38;30875809;28;20089;-77
2022/03/31 08:05:07;;;;;;;10.25;4.65;;;;;;;18.79;44.94;99616.81;30873014;28;20542;-78
2022/03/31 08:20:11;;;;;;;12.48;4.10;;;;;;;18.02;45.13;99618.97;30919653;28;20054;-79
2022/03/31 08:35:15;;;;;;;;;;;;;;;19.07;41.69;99593.06;30949945;28;20072;-78
2022/03/31 08:50:21;;;;;;;10.50;3.97;;;;;;;19.84;39.88;99583.06;30985768;28;19925;-76
2022/03/31 09:05:27;;;;;;;12.20;4.80;;;;;;;20.41;36.46;99550.44;30974852;28;20172;-77
2022/03/31 09:20:37;;;;;;;16.50;4.38;;;;;;;21.31;34.03;99555.94;30987552;28;20065;-75
2022/03/31 09:35:41;;;;;;;14.15;3.25;;;;;;;21.53;34.60;99510.94;30966860;28;20093;-79
2022/03/31 09:50:44;;;;;;;12.00;4.27;;;;;;;22.10;33.62;99502.69;31008156;28;20060;-76
2022/03/31 10:05:46;;;;;;;;;;;;;;;22.07;31.94;99505.72;31023733;28;20050;-77
2022/03/31 10:20:56;;;;;;;33.35;5.28;;;;;;;21.76;31.76;99484.75;31015837;28;20382;-76
2022/03/31 10:36:13;;;;;;;33.72;6.07;;;;;;;21.65;31.06;99479.28;31012771;28;20054;-75
2022/03/31 10:51:31;;;;;;;27.92;5.30;;;;;;;21.97;32.42;99483.09;31011314;28;20054;-76
2022/03/31 11:06:48;;;;;;;31.00;5.00;;;;;;;22.09;32.15;99483.84;30991011;28;20142;-75
2022/03/31 11:21:51;;;;;;;18.77;4.05;;;;;;;22.38;32.33;99471.31;30941296;28;20055;-76
2022/03/31 11:36:55;;;;;;;43.85;5.82;;;;;;;22.48;30.81;99463.44;30845423;28;20141;-79
2022/03/31 11:52:00;;;;;;;30.50;6.20;;;;;;;22.58;30.78;99423.13;30730272;28;62996;-81
2022/03/31 12:07:03;;;;;;;37.97;7.55;;;;;;;21.65;30.34;99396.44;30676218;28;20047;-77
2022/03/31 12:22:09;;;;;;;35.05;6.32;;;;;;;20.83;31.62;99407.25;30683966;28;20424;-75
2022/03/31 12:37:13;;;;;;;44.50;7.68;;;;;;;20.44;32.70;99438.41;30790155;28;20086;-82
2022/03/31 12:52:20;;;;;;;58.93;7.17;;;;;;;20.37;33.22;99438.91;30811155;28;20438;-78
2022/03/31 13:07:27;;;;;;;39.20;7.82;;;;;;;20.30;33.40;99422.84;30816772;28;20039;-83
2022/03/31 13:22:29;;;;;;;37.90;7.40;;;;;;;19.73;35.51;99393.75;30837009;28;20059;-74
2022/03/31 13:37:34;;;;;;;55.75;7.80;;;;;;;19.78;34.69;99406.78;30893647;28;20042;-81
2022/03/31 13:52:36;;;;;;;47.65;5.93;;;;;;;19.52;33.73;99393.19;30888943;28;20057;-74
2022/03/31 14:07:41;;;;;;;36.97;5.97;;;;;;;18.91;34.38;99432.16;30875430;28;20105;-74
2022/03/31 14:22:44;;;;;;;28.00;5.87;;;;;;;18.47;35.90;99442.84;30872689;28;20057;-75
2022/03/31 14:37:46;;;;;;;22.67;4.80;;;;;;;18.24;37.07;99430.91;30865797;28;20073;-75
2022/03/31 14:52:49;;;;;;;38.03;6.15;;;;;;;18.00;37.85;99412.72;30862631;28;20039;-74
2022/03/31 15:07:53;;;;;;;31.25;5.70;;;;;;;17.65;38.61;99418.38;30864328;28;20139;-74
2022/03/31 15:22:55;;;;;;;35.90;5.78;;;;;;;17.23;39.87;99432.59;30872779;28;20054;-82
2022/03/31 15:37:58;;;;;;;27.70;4.82;;;;;;;16.79;42.14;99429.22;30850089;28;20051;-75
2022/03/31 15:53:02;;;;;;;27.70;4.70;;;;;;;16.33;43.46;99433.22;30888656;28;20058;-82
2022/03/31 16:08:05;;;;;;;18.20;4.55;;;;;;;15.94;46.33;99440.78;30876212;28;20050;-82
2022/03/31 16:38:31;;;;;;;21.77;5.90;;;;;;;15.14;51.26;99430.72;30858560;28;20422;-79
2022/03/31 16:53:35;;;;;;;19.37;6.93;;;;;;;14.81;55.04;99458.09;30873532;28;20054;-82
2022/03/31 17:08:44;;;;;;;15.17;4.77;;;;;;;14.57;56.91;99493.56;30888649;28;20054;-82
2022/03/31 17:23:49;;;;;;;18.40;5.80;;;;;;;14.27;58.18;99508.16;30890661;28;20064;-75
2022/03/31 17:38:56;;;;;;;24.67;5.67;;;;;;;13.82;60.89;99523.34;30890171;28;20074;-74
2022/03/31 17:54:01;;;;;;;;;;;;;;;13.59;63.25;99538.31;30874103;28;20054;-75
2022/03/31 18:09:05;;;;;;;24.70;5.97;;;;;;;13.42;62.64;99531.63;30901236;28;19922;-74
2022/03/31 18:24:10;;;;;;;19.87;4.77;;;;;;;13.29;62.68;99537.19;30854694;28;20780;-75
2022/03/31 18:39:13;;;;;;;22.60;6.00;;;;;;;13.10;62.79;99502.13;30832620;28;20087;-75
2022/03/31 18:54:18;;;;;;;16.80;4.87;;;;;;;12.76;63.42;99501.06;30835692;28;20051;-75
2022/03/31 19:09:22;;;;;;;20.00;7.07;;;;;;;12.05;64.79;99508.34;30846726;28;20049;-75
2022/03/31 19:24:25;;;;;;;25.37;7.83;;;;;;;11.54;66.56;99505.78;30849796;28;20066;-75
2022/03/31 19:39:28;;;;;;;23.73;6.50;;;;;;;11.17;66.87;99491.81;30844702;28;20049;-74
2022/03/31 19:54:31;;;;;;;18.60;6.37;;;;;;;10.91;69.43;99485.66;30857244;28;20082;-70
2022/03/31 20:09:33;;;;;;;14.90;5.10;;;;;;;10.84;70.11;99447.13;30872300;28;20149;-75
2022/03/31 20:24:36;;;;;;;14.07;5.00;;;;;;;11.09;70.70;99476.97;30850485;28;20054;-73
2022/03/31 20:39:38;;;;;;;9.37;4.87;;;;;;;11.45;70.62;99464.94;30841390;28;20090;-73
2022/03/31 20:54:41;;;;;;;13.00;5.37;;;;;;;11.63;69.43;99479.44;30836381;28;20046;-75
2022/03/31 21:09:44;;;;;;;18.70;6.40;;;;;;;11.62;68.87;99477.91;30844454;28;20053;-74
2022/03/31 21:24:46;;;;;;;17.40;4.97;;;;;;;11.42;68.90;99495.69;30866079;28;20050;-74
2022/03/31 21:39:48;;;;;;;19.90;6.07;;;;;;;11.31;68.93;99500.75;30851705;28;22202;-73
2022/03/31 21:54:50;;;;;;;16.67;6.17;;;;;;;11.21;68.60;99454.44;30861631;28;20078;-73
2022/03/31 22:25:13;;;;;;;21.30;7.43;;;;;;;10.69;72.21;99465.03;30877931;28;20118;-73
2022/03/31 22:40:15;;;;;;;13.30;5.13;;;;;;;10.65;72.82;99397.25;30866969;28;20074;-73
2022/03/31 22:55:17;;;;;;;21.33;6.93;;;;;;;10.44;74.81;99414.97;30868782;28;20085;-74
2022/03/31 23:10:21;;;;;;;16.57;5.93;;;;;;;10.30;74.76;99377.41;30864495;28;20050;-73
2022/03/31 23:25:29;;;;;;;16.97;6.00;;;;;;;10.48;73.62;99355.91;30861619;28;20556;-74
2022/03/31 23:40:33;;;;;;;14.80;5.80;;;;;;;10.51;73.92;99344.19;30867453;28;20074;-74
2022/03/31 23:55:35;;;;;;;14.83;6.40;;;;;;;10.52;73.57;99298.81;30851545;28;20086;-73
